»·PEaware :: N107MR CYKA-KGEG

N107MR :: CYKA-KGEG

FLIGHT INFORMATION

Flight Status: Arrived
Operator: Privately registered:
United States
More flights under this callsign
Pilot: Michael R. (16974)
Aircraft: ECLIPSE 500
(EA50)
More flights by this aircraft type
Origin: CYKA Kamloops
Canada
Destination: KGEG Spokane Intl
United States
More flights between these airports :: More routes between these airports
Route: YDC GEG
File this flight plan on PilotEdge
Remarks:
Altitude:
(Current/Filed)
23,000ft
Speed:
(Current/Filed)
350kts
Departed: 13-Feb-18 10:04 PM
Arrived: 13-Feb-18 11:00 PM
Distance/Time
Traveled:
217nm/0:56
Distance/Time
To Go:
Arrived

Flight Plot

Page will automatically refresh every two minutes.

Flight plan parsing failed; only flown route is shown


Map Options




Map Legend


Flown Route
Filed Route
Departure Airport
Arrival Airport
Navaid (VOR, NDB)
Fix

Horizontal Profiles

Position Reports

Time Latitude Longitude Heading Altitude Ground
Speed
13-Feb-18 22:06 50.705497 -120.465070 103 1135ft 0kts
13-Feb-18 22:07 50.705497 -120.465070 103 1135ft 0kts
13-Feb-18 22:08 50.705497 -120.465070 103 1135ft 0kts
13-Feb-18 22:09 50.705497 -120.465070 103 1135ft 0kts
13-Feb-18 22:10 50.705497 -120.465070 103 1135ft 0kts
13-Feb-18 22:11 50.704290 -120.456910 103 1135ft 97kts
13-Feb-18 22:12 50.695018 -120.392857 103 3240ft 174kts
13-Feb-18 22:13 50.666195 -120.336574 165 6253ft 179kts
13-Feb-18 22:14 50.617187 -120.329401 182 9276ft 184kts
13-Feb-18 22:15 50.566100 -120.329814 192 12115ft 190kts
13-Feb-18 22:16 50.512188 -120.333064 194 14763ft 197kts
13-Feb-18 22:17 50.459135 -120.335514 196 17377ft 190kts
13-Feb-18 22:18 50.408122 -120.337578 199 19833ft 179kts
13-Feb-18 22:19 50.360039 -120.339467 200 22002ft 171kts
13-Feb-18 22:20 50.308780 -120.341938 197 22907ft 224kts
13-Feb-18 22:21 50.239173 -120.344466 194 22902ft 263kts
13-Feb-18 22:22 50.165959 -120.346834 194 22901ft 265kts
13-Feb-18 22:23 50.092611 -120.349311 194 22900ft 265kts
13-Feb-18 22:24 50.019100 -120.351842 194 22984ft 264kts
13-Feb-18 22:25 49.945982 -120.354382 194 23017ft 265kts
13-Feb-18 22:26 49.875737 -120.356817 194 23025ft 265kts
13-Feb-18 22:27 49.802141 -120.359362 194 23025ft 265kts
13-Feb-18 22:28 49.728587 -120.361974 193 23025ft 269kts
13-Feb-18 22:29 49.654293 -120.364476 193 23024ft 268kts
13-Feb-18 22:30 49.580092 -120.367006 193 23023ft 268kts
13-Feb-18 22:31 49.505748 -120.369543 193 23022ft 268kts
13-Feb-18 22:32 49.431573 -120.372069 193 23021ft 268kts
13-Feb-18 22:33 49.359476 -120.332596 150 23022ft 324kts
13-Feb-18 22:34 49.295311 -120.235080 147 23021ft 328kts
13-Feb-18 22:35 49.231179 -120.134691 145 23023ft 331kts
13-Feb-18 22:36 49.167053 -120.033582 145 23009ft 331kts
13-Feb-18 22:37 49.103048 -119.932966 145 23059ft 331kts
13-Feb-18 22:38 49.038966 -119.832615 145 23060ft 331kts
13-Feb-18 22:39 48.974723 -119.732425 145 23061ft 333kts
13-Feb-18 22:40 48.909838 -119.631593 145 23062ft 333kts
13-Feb-18 22:41 48.847081 -119.534451 145 23071ft 333kts
13-Feb-18 22:42 48.782253 -119.434508 145 23069ft 333kts
13-Feb-18 22:43 48.718053 -119.336027 145 23020ft 332kts
13-Feb-18 22:44 48.653780 -119.237641 145 23016ft 333kts
13-Feb-18 22:45 48.588843 -119.138638 145 23017ft 333kts
13-Feb-18 22:46 48.523743 -119.039790 145 23017ft 333kts
13-Feb-18 22:47 48.458585 -118.941262 145 22936ft 334kts
13-Feb-18 22:48 48.393680 -118.843445 145 21639ft 325kts
13-Feb-18 22:49 48.330721 -118.748953 145 20250ft 318kts
13-Feb-18 22:50 48.269093 -118.656804 145 18866ft 311kts
13-Feb-18 22:51 48.208222 -118.566197 144 17411ft 305kts
13-Feb-18 22:52 48.149123 -118.478409 144 15845ft 298kts
13-Feb-18 22:53 48.091165 -118.392643 144 14192ft 290kts
13-Feb-18 22:54 48.036543 -118.312146 144 12546ft 283kts
13-Feb-18 22:55 47.982024 -118.231999 144 12006ft 270kts
13-Feb-18 22:56 47.928666 -118.153787 144 11989ft 268kts
13-Feb-18 22:57 47.876249 -118.077221 143 10936ft 261kts
13-Feb-18 22:58 47.825668 -118.003488 143 9118ft 244kts
13-Feb-18 22:59 47.777635 -117.933825 141 7483ft 228kts
13-Feb-18 23:00 47.730154 -117.865120 139 5985ft 235kts
13-Feb-18 23:01 47.685472 -117.800535 137 4987ft 188kts
13-Feb-18 23:02 47.646772 -117.744728 136 4412ft 203kts
13-Feb-18 23:03 47.602633 -117.708367 136 3270ft 160kts
13-Feb-18 23:04 47.578636 -117.662559 110 3686ft 157kts
13-Feb-18 23:05 47.580328 -117.593721 50 3737ft 182kts
13-Feb-18 23:06 47.612232 -117.546885 43 2386ft 119kts
13-Feb-18 23:07 47.620562 -117.531011 51 2360ft 18kts
13-Feb-18 23:08 47.620696 -117.527835 73 2359ft 0kts
13-Feb-18 23:09 47.620696 -117.527835 73 2359ft 0kts
13-Feb-18 23:10 47.620696 -117.527835 73 2359ft 0kts

Navigation Log

Ident Type
Flight plan parsing failed, navigation log unavailable